Time;durP1;ratioP1;P1;durP2;ratioP2;P2;SDS_P1;SDS_P2;PMS_P1;PMS_P2;Temp;Humidity;BMP_temperature;BMP_pressure;BME280_temperature;BME280_humidity;BME280_pressure;Samples;Min_cycle;Max_cycle;Signal;HPM_P1;HPM_P2
2021/07/26 00:00:12;;;;;;;48.78;21.98;;;18.20;99.90;;;;;;2111589;28;20030;-73
2021/07/26 00:01:16;;;;;;;39.22;22.15;;;18.20;99.90;;;;;;2111217;28;20099;-72
2021/07/26 00:02:17;;;;;;;39.28;22.58;;;18.20;99.90;;;;;;2112378;28;20016;-74
2021/07/26 00:03:17;;;;;;;36.83;22.27;;;18.20;99.90;;;;;;2107846;28;20558;-73
2021/07/26 00:04:18;;;;;;;32.17;21.83;;;18.20;99.90;;;;;;2108074;28;20055;-73
2021/07/26 00:05:19;;;;;;;32.88;21.42;;;18.20;99.90;;;;;;2111485;28;20064;-72
2021/07/26 00:06:19;;;;;;;35.67;21.83;;;18.20;99.90;;;;;;2111458;28;20016;-73
2021/07/26 00:07:20;;;;;;;37.55;21.70;;;18.10;99.90;;;;;;2103884;28;20027;-73
2021/07/26 00:08:21;;;;;;;35.17;21.05;;;18.10;99.90;;;;;;2102875;28;20576;-73
2021/07/26 00:09:21;;;;;;;34.85;21.98;;;18.10;99.90;;;;;;2102875;28;20029;-73
2021/07/26 00:10:22;;;;;;;36.70;20.67;;;18.10;99.90;;;;;;2094721;28;20087;-73
2021/07/26 00:11:23;;;;;;;37.20;22.10;;;18.10;99.90;;;;;;2101283;28;20098;-74
2021/07/26 00:12:24;;;;;;;36.65;21.50;;;18.10;99.90;;;;;;2106586;28;20104;-73
2021/07/26 00:13:24;;;;;;;33.35;21.02;;;18.10;99.90;;;;;;2106747;28;20045;-73
2021/07/26 00:14:25;;;;;;;33.90;21.65;;;18.10;99.90;;;;;;2105811;28;20031;-73
2021/07/26 00:15:28;;;;;;;38.03;21.42;;;18.10;99.90;;;;;;2097641;28;20025;-73
2021/07/26 00:16:29;;;;;;;37.00;22.40;;;18.00;99.90;;;;;;2098189;28;20025;-74
2021/07/26 00:17:30;;;;;;;32.20;21.42;;;18.00;99.90;;;;;;2098944;28;20541;-73
2021/07/26 00:18:31;;;;;;;36.78;20.63;;;18.00;99.90;;;;;;2101355;28;20171;-75
2021/07/26 00:19:32;;;;;;;36.03;21.45;;;18.00;99.90;;;;;;2100144;28;20025;-73
2021/07/26 00:20:32;;;;;;;33.65;21.30;;;18.00;99.90;;;;;;2097033;28;20404;-73
2021/07/26 00:21:33;;;;;;;33.97;22.40;;;18.00;99.90;;;;;;2103701;28;20548;-73
2021/07/26 00:22:34;;;;;;;34.45;22.80;;;18.00;99.90;;;;;;2105921;28;20463;-74
2021/07/26 00:23:34;;;;;;;37.88;22.50;;;18.00;99.90;;;;;;2098100;28;20415;-74
2021/07/26 00:24:35;;;;;;;35.75;21.05;;;18.00;99.90;;;;;;2098019;28;20020;-74
2021/07/26 00:25:36;;;;;;;33.15;20.60;;;18.10;99.90;;;;;;2100344;28;20020;-74
2021/07/26 00:26:36;;;;;;;31.92;20.85;;;18.10;99.90;;;;;;2105480;28;20035;-74
2021/07/26 00:27:37;;;;;;;30.23;21.20;;;18.10;99.90;;;;;;2105556;28;20035;-73
2021/07/26 00:28:39;;;;;;;40.25;21.65;;;18.10;99.90;;;;;;2114222;28;20023;-74
2021/07/26 00:29:39;;;;;;;31.77;20.80;;;18.10;99.90;;;;;;2105822;28;20031;-73
2021/07/26 00:30:40;;;;;;;37.47;20.95;;;18.10;99.90;;;;;;2105774;28;20086;-73
2021/07/26 00:31:41;;;;;;;38.70;20.88;;;18.10;99.90;;;;;;2105759;28;20122;-74
2021/07/26 00:32:41;;;;;;;35.30;20.45;;;18.10;99.90;;;;;;2105600;28;20028;-74
2021/07/26 00:34:10;;;;;;;29.00;19.77;;;18.10;99.90;;;;;;2102476;28;20081;-73
2021/07/26 00:35:11;;;;;;;33.13;20.52;;;18.10;99.90;;;;;;2105225;28;20028;-72
2021/07/26 00:36:12;;;;;;;36.17;21.17;;;18.10;99.90;;;;;;2105422;28;20069;-71
2021/07/26 00:37:13;;;;;;;34.85;19.55;;;18.10;99.90;;;;;;2097968;28;20495;-71
2021/07/26 00:38:14;;;;;;;31.98;19.75;;;18.10;99.90;;;;;;2098114;28;20396;-72
2021/07/26 00:39:18;;;;;;;31.98;19.00;;;18.10;99.90;;;;;;2097702;28;20456;-74
2021/07/26 00:40:18;;;;;;;32.45;19.38;;;18.10;99.90;;;;;;2097901;28;20032;-74
2021/07/26 00:41:22;;;;;;;34.97;19.23;;;18.10;99.90;;;;;;2097096;28;20111;-73
2021/07/26 00:42:22;;;;;;;30.98;19.13;;;18.10;99.90;;;;;;2095732;28;20027;-73
2021/07/26 00:43:23;;;;;;;31.85;18.67;;;18.10;99.90;;;;;;2097520;28;20092;-73
2021/07/26 00:44:26;;;;;;;31.42;17.52;;;18.10;99.90;;;;;;2097827;28;20028;-73
2021/07/26 00:45:27;;;;;;;33.40;17.88;;;18.10;99.90;;;;;;2097893;28;20016;-72
2021/07/26 00:46:27;;;;;;;29.02;18.70;;;18.10;99.90;;;;;;2097879;28;20069;-73
2021/07/26 00:47:28;;;;;;;32.45;17.98;;;18.10;99.90;;;;;;2097880;28;20023;-73
2021/07/26 00:48:29;;;;;;;35.38;19.73;;;18.10;99.90;;;;;;2105400;28;20074;-73
2021/07/26 00:49:30;;;;;;;41.67;19.05;;;18.10;99.90;;;;;;2105772;28;20070;-72
2021/07/26 00:50:31;;;;;;;29.13;17.55;;;18.10;99.90;;;;;;2097933;28;20446;-73
2021/07/26 00:51:31;;;;;;;31.38;17.52;;;18.20;99.90;;;;;;2096293;28;20024;-73
2021/07/26 00:52:32;;;;;;;36.85;18.10;;;18.10;99.90;;;;;;2103913;28;20099;-72
2021/07/26 00:53:34;;;;;;;29.25;17.02;;;18.10;99.90;;;;;;2105862;28;20020;-74
2021/07/26 00:54:37;;;;;;;30.48;17.08;;;18.10;99.90;;;;;;2106031;28;20450;-73
2021/07/26 00:55:40;;;;;;;28.35;17.13;;;18.10;99.90;;;;;;2105474;28;20097;-72
2021/07/26 00:56:42;;;;;;;31.77;17.50;;;18.10;99.90;;;;;;2102609;28;20546;-73
2021/07/26 00:57:43;;;;;;;34.17;17.75;;;18.10;99.90;;;;;;2100655;28;20017;-73
2021/07/26 00:58:44;;;;;;;30.70;17.58;;;18.10;99.90;;;;;;2097643;28;20016;-72
2021/07/26 00:59:45;;;;;;;31.02;18.00;;;18.10;99.90;;;;;;2097916;28;20055;-72
2021/07/26 01:00:46;;;;;;;29.67;17.52;;;18.10;99.90;;;;;;2105356;28;20132;-73
2021/07/26 01:01:47;;;;;;;31.58;17.13;;;18.10;99.90;;;;;;2102922;28;20044;-72
2021/07/26 01:02:48;;;;;;;38.88;17.23;;;18.10;99.90;;;;;;2103777;28;20025;-72
2021/07/26 01:03:49;;;;;;;36.58;18.15;;;18.10;99.90;;;;;;2105318;28;20043;-72
2021/07/26 01:04:49;;;;;;;29.67;16.95;;;18.10;99.90;;;;;;2098045;28;20027;-72
2021/07/26 01:05:50;;;;;;;33.55;17.23;;;18.10;99.90;;;;;;2096976;28;20036;-73
2021/07/26 01:06:51;;;;;;;39.60;17.08;;;18.10;99.90;;;;;;2103005;28;20024;-74
2021/07/26 01:07:51;;;;;;;28.83;17.75;;;18.10;99.90;;;;;;2107541;28;20037;-73
2021/07/26 01:08:52;;;;;;;38.78;17.02;;;18.10;99.90;;;;;;2098303;28;20106;-74
2021/07/26 01:09:53;;;;;;;27.10;16.45;;;18.10;99.90;;;;;;2097649;28;20502;-74
2021/07/26 01:10:53;;;;;;;33.17;17.25;;;18.10;99.90;;;;;;2100701;28;20028;-73
2021/07/26 01:11:54;;;;;;;34.03;17.05;;;18.10;99.90;;;;;;2105846;28;20020;-72
2021/07/26 01:12:55;;;;;;;35.70;16.38;;;18.10;99.90;;;;;;2105674;28;20039;-72
2021/07/26 01:13:56;;;;;;;32.13;16.15;;;18.10;99.90;;;;;;2106091;28;20081;-72
2021/07/26 01:14:58;;;;;;;34.50;17.00;;;18.10;99.90;;;;;;2105393;28;20036;-74
2021/07/26 01:15:59;;;;;;;28.70;16.27;;;18.10;99.90;;;;;;2097311;28;20032;-72
2021/07/26 01:17:00;;;;;;;33.67;16.73;;;18.10;99.90;;;;;;2097275;28;20056;-72
2021/07/26 01:18:21;;;;;;;33.40;16.30;;;18.10;99.90;;;;;;2107607;28;20406;-73
2021/07/26 01:19:21;;;;;;;31.63;17.38;;;18.10;99.90;;;;;;2108738;28;20024;-73
2021/07/26 01:20:22;;;;;;;32.95;16.17;;;18.10;99.90;;;;;;2106038;28;20127;-73
2021/07/26 01:21:23;;;;;;;31.00;16.08;;;18.10;99.90;;;;;;2105285;28;20107;-72
2021/07/26 01:22:23;;;;;;;25.88;15.60;;;18.10;99.90;;;;;;2109207;28;20024;-73
2021/07/26 01:23:26;;;;;;;27.52;15.27;;;18.10;99.90;;;;;;2109405;28;20016;-75
2021/07/26 01:24:27;;;;;;;29.73;16.10;;;18.10;99.90;;;;;;2105822;28;20099;-74
2021/07/26 01:25:27;;;;;;;32.45;16.40;;;18.00;99.90;;;;;;2105309;28;20030;-73
2021/07/26 01:26:29;;;;;;;30.92;16.55;;;18.10;99.90;;;;;;2105321;28;20024;-73
2021/07/26 01:27:30;;;;;;;32.80;15.82;;;18.10;99.90;;;;;;2102606;28;20028;-72
2021/07/26 01:28:36;;;;;;;30.95;15.23;;;18.10;99.90;;;;;;2097237;28;20516;-72
2021/07/26 01:29:36;;;;;;;31.10;16.52;;;18.10;99.90;;;;;;2097432;28;20061;-74
2021/07/26 01:30:37;;;;;;;31.27;15.85;;;18.10;99.90;;;;;;2096873;28;20032;-74
2021/07/26 01:31:38;;;;;;;33.13;16.17;;;18.10;99.90;;;;;;2097144;28;20066;-73
2021/07/26 01:32:39;;;;;;;42.07;17.30;;;18.10;99.90;;;;;;2097973;28;20094;-73
2021/07/26 01:33:42;;;;;;;31.55;15.57;;;18.10;99.90;;;;;;2097263;28;20263;-75
2021/07/26 01:34:42;;;;;;;29.65;15.70;;;18.10;99.90;;;;;;2100129;28;20027;-74
2021/07/26 01:35:43;;;;;;;32.30;15.55;;;18.10;99.90;;;;;;2105435;28;20487;-72
2021/07/26 01:36:44;;;;;;;35.92;16.85;;;18.00;99.90;;;;;;2105249;28;20024;-72
2021/07/26 01:37:44;;;;;;;28.42;16.10;;;18.10;99.90;;;;;;2105083;28;20106;-73
2021/07/26 01:38:45;;;;;;;27.20;15.57;;;18.10;99.90;;;;;;2105203;28;20107;-72
2021/07/26 01:39:46;;;;;;;33.60;17.50;;;18.10;99.90;;;;;;2105267;28;20205;-73
2021/07/26 01:40:52;;;;;;;26.95;15.05;;;18.00;99.90;;;;;;2102461;28;20077;-73
2021/07/26 01:41:55;;;;;;;29.45;16.15;;;18.10;99.90;;;;;;2104748;28;20419;-72
2021/07/26 01:43:02;;;;;;;29.77;16.00;;;18.10;99.90;;;;;;2102503;28;20036;-72
2021/07/26 01:44:10;;;;;;;28.48;15.30;;;18.10;99.90;;;;;;2097635;28;20027;-73
2021/07/26 01:45:11;;;;;;;31.88;16.33;;;18.10;99.90;;;;;;2097463;28;20459;-72
2021/07/26 01:46:40;;;;;;;26.88;15.50;;;18.10;99.90;;;;;;2097501;28;20494;-73
2021/07/26 01:47:50;;;;;;;28.67;15.75;;;18.10;99.90;;;;;;2096835;28;20466;-73
2021/07/26 01:49:00;;;;;;;32.55;16.30;;;18.10;99.90;;;;;;2097360;28;20036;-73
2021/07/26 01:50:11;;;;;;;28.48;15.32;;;18.10;99.90;;;;;;2098706;28;20023;-73
2021/07/26 01:51:16;;;;;;;32.55;15.77;;;18.10;99.90;;;;;;2098387;28;20483;-73
2021/07/26 01:52:19;;;;;;;38.20;16.00;;;18.10;99.90;;;;;;2104553;28;20016;-73
2021/07/26 01:53:20;;;;;;;34.17;15.68;;;18.10;99.90;;;;;;2104886;28;20028;-73
2021/07/26 01:54:20;;;;;;;27.73;15.57;;;18.10;99.90;;;;;;2101949;28;20036;-73
2021/07/26 01:55:21;;;;;;;31.48;15.95;;;18.00;99.90;;;;;;2105235;28;20028;-76
2021/07/26 01:56:22;;;;;;;30.00;16.05;;;18.10;99.90;;;;;;2106315;28;20020;-74
2021/07/26 01:57:23;;;;;;;28.55;15.68;;;18.10;99.90;;;;;;2105155;28;20086;-73
2021/07/26 01:58:25;;;;;;;37.92;16.10;;;18.10;99.90;;;;;;2104945;28;20020;-73
2021/07/26 01:59:26;;;;;;;33.03;16.05;;;18.10;99.90;;;;;;2096699;28;20032;-73
2021/07/26 02:00:27;;;;;;;32.25;16.48;;;18.10;99.90;;;;;;2105104;28;20629;-73
2021/07/26 02:01:27;;;;;;;28.80;16.02;;;18.10;99.90;;;;;;2095249;28;20033;-74
2021/07/26 02:02:29;;;;;;;33.30;16.40;;;18.10;99.90;;;;;;2095214;28;20021;-73
2021/07/26 02:03:30;;;;;;;28.27;15.52;;;18.10;99.90;;;;;;2089557;28;20505;-73
2021/07/26 02:04:31;;;;;;;37.10;15.65;;;18.10;99.90;;;;;;2096360;28;20566;-73
2021/07/26 02:05:31;;;;;;;35.15;16.48;;;18.10;99.90;;;;;;2096556;28;20052;-73
2021/07/26 02:06:32;;;;;;;32.25;15.60;;;18.10;99.90;;;;;;2096646;28;20028;-72
2021/07/26 02:07:33;;;;;;;31.55;15.82;;;18.10;99.90;;;;;;2097218;28;20601;-72
2021/07/26 02:08:33;;;;;;;30.70;15.93;;;18.10;99.90;;;;;;2098021;28;20491;-72
2021/07/26 02:09:35;;;;;;;26.70;15.63;;;18.10;99.90;;;;;;2104962;28;20476;-72
2021/07/26 02:10:36;;;;;;;29.98;16.42;;;18.10;99.90;;;;;;2102560;28;20031;-73
2021/07/26 02:11:37;;;;;;;31.15;15.98;;;18.10;99.90;;;;;;2096539;28;20064;-73
2021/07/26 02:12:38;;;;;;;34.58;16.50;;;18.10;99.90;;;;;;2095210;28;20032;-72
2021/07/26 02:13:39;;;;;;;35.10;16.00;;;18.10;99.90;;;;;;2100954;28;20031;-73
2021/07/26 02:14:39;;;;;;;33.87;16.47;;;18.10;99.90;;;;;;2105227;28;20028;-74
2021/07/26 02:15:40;;;;;;;30.98;15.98;;;18.10;99.90;;;;;;2105634;28;20032;-72
2021/07/26 02:16:42;;;;;;;41.97;17.45;;;18.10;99.90;;;;;;2105570;28;20107;-73
2021/07/26 02:17:43;;;;;;;28.40;16.33;;;18.10;99.90;;;;;;2105393;28;20024;-74
2021/07/26 02:18:43;;;;;;;27.42;16.02;;;18.10;99.90;;;;;;2105589;28;20024;-73
2021/07/26 02:19:44;;;;;;;28.88;16.48;;;18.10;99.90;;;;;;2105308;28;20032;-73
2021/07/26 02:20:45;;;;;;;33.15;16.50;;;18.00;99.90;;;;;;2105448;28;20099;-71
2021/07/26 02:21:46;;;;;;;28.52;15.80;;;18.10;99.90;;;;;;2105499;28;20693;-74
2021/07/26 02:22:46;;;;;;;33.47;16.20;;;18.10;99.90;;;;;;2096448;28;20078;-73
2021/07/26 02:23:47;;;;;;;28.73;15.57;;;18.10;99.90;;;;;;2097085;28;20100;-73
2021/07/26 02:24:48;;;;;;;30.55;15.57;;;18.10;99.90;;;;;;2104152;28;20033;-73
2021/07/26 02:25:48;;;;;;;37.58;15.70;;;18.10;99.90;;;;;;2104826;28;20130;-73
2021/07/26 02:26:49;;;;;;;31.48;15.80;;;18.10;99.90;;;;;;2104827;28;20069;-74
2021/07/26 02:27:50;;;;;;;29.10;14.75;;;18.00;99.90;;;;;;2102175;28;20063;-73
2021/07/26 02:28:50;;;;;;;36.90;15.43;;;18.10;99.90;;;;;;2098392;28;20484;-74
2021/07/26 02:29:51;;;;;;;36.05;16.08;;;18.10;99.90;;;;;;2104329;28;20059;-73
2021/07/26 02:30:52;;;;;;;35.30;16.40;;;18.00;99.90;;;;;;2105382;28;20459;-74
2021/07/26 02:31:53;;;;;;;27.95;14.57;;;18.10;99.90;;;;;;2105435;28;20055;-73
2021/07/26 02:32:53;;;;;;;26.30;15.63;;;18.10;99.90;;;;;;2101383;28;20044;-73
2021/07/26 02:33:54;;;;;;;29.63;15.25;;;18.10;99.90;;;;;;2096766;28;20032;-73
2021/07/26 02:34:55;;;;;;;30.08;16.35;;;18.10;99.90;;;;;;2096974;28;20025;-74
2021/07/26 02:35:55;;;;;;;30.52;15.70;;;18.10;99.90;;;;;;2096999;28;20082;-73
2021/07/26 02:36:56;;;;;;;33.13;15.13;;;18.10;99.90;;;;;;2096916;28;20023;-73
2021/07/26 02:37:58;;;;;;;29.40;15.18;;;18.00;99.90;;;;;;2096938;28;20404;-73
2021/07/26 02:38:58;;;;;;;32.70;15.25;;;18.10;99.90;;;;;;2096187;28;20024;-73
2021/07/26 02:40:00;;;;;;;31.70;14.95;;;18.00;99.90;;;;;;2096052;28;20033;-73
2021/07/26 02:41:11;;;;;;;30.13;15.27;;;18.00;99.90;;;;;;2096354;28;20385;-73
2021/07/26 02:42:12;;;;;;;30.23;14.93;;;18.00;99.90;;;;;;2097981;28;20411;-71
2021/07/26 02:43:13;;;;;;;26.50;14.65;;;18.00;99.90;;;;;;2101590;28;20293;-72
2021/07/26 02:44:13;;;;;;;27.15;15.25;;;18.00;99.90;;;;;;2106008;28;20026;-72
2021/07/26 02:45:14;;;;;;;31.65;15.65;;;18.00;99.90;;;;;;2107042;28;20012;-72
2021/07/26 02:46:15;;;;;;;26.95;15.75;;;18.00;99.90;;;;;;2101593;28;20224;-73
2021/07/26 02:47:15;;;;;;;31.63;15.38;;;18.00;99.90;;;;;;2103488;28;20031;-73
2021/07/26 02:48:16;;;;;;;27.83;15.57;;;18.00;99.90;;;;;;2096502;28;20108;-72
2021/07/26 02:49:16;;;;;;;28.60;15.55;;;18.00;99.90;;;;;;2096078;28;20019;-73
2021/07/26 02:50:18;;;;;;;32.70;16.30;;;18.00;99.90;;;;;;2097014;28;20021;-72
2021/07/26 02:51:18;;;;;;;33.13;15.02;;;18.00;99.90;;;;;;2095389;28;20429;-73
2021/07/26 02:52:19;;;;;;;29.83;15.63;;;18.00;99.90;;;;;;2098782;28;20024;-72
2021/07/26 02:53:20;;;;;;;31.15;15.55;;;18.00;99.90;;;;;;2104537;28;20100;-72
2021/07/26 02:54:20;;;;;;;29.35;15.05;;;18.00;99.90;;;;;;2104386;28;20051;-73
2021/07/26 02:55:21;;;;;;;31.55;15.25;;;18.00;99.90;;;;;;2095274;28;20032;-73
2021/07/26 02:56:22;;;;;;;35.60;16.23;;;18.00;99.90;;;;;;2096867;28;20074;-74
2021/07/26 02:57:22;;;;;;;30.98;15.55;;;18.00;99.90;;;;;;2102250;28;20020;-74
2021/07/26 02:58:23;;;;;;;25.77;14.70;;;18.00;99.90;;;;;;2100302;28;20485;-72
2021/07/26 02:59:24;;;;;;;30.20;15.23;;;18.00;99.90;;;;;;2103552;28;20076;-74
2021/07/26 03:00:25;;;;;;;26.20;15.57;;;18.00;99.90;;;;;;2102241;28;20331;-73
2021/07/26 03:01:25;;;;;;;34.90;14.13;;;18.00;99.90;;;;;;2096193;28;20012;-72
2021/07/26 03:02:26;;;;;;;29.98;15.05;;;18.00;99.90;;;;;;2095382;28;20035;-72
2021/07/26 03:03:27;;;;;;;28.83;14.50;;;17.90;99.90;;;;;;2096208;28;20024;-72
2021/07/26 03:04:27;;;;;;;32.92;15.10;;;17.90;99.90;;;;;;2103406;28;20031;-72
2021/07/26 03:05:28;;;;;;;30.38;15.00;;;17.90;99.90;;;;;;2096786;28;20055;-73
2021/07/26 03:06:29;;;;;;;35.78;14.52;;;17.90;99.90;;;;;;2096383;28;20024;-72
2021/07/26 03:07:32;;;;;;;33.03;14.18;;;17.90;99.90;;;;;;2096531;28;20017;-73
2021/07/26 03:08:35;;;;;;;35.70;15.20;;;17.90;99.90;;;;;;2096303;28;20017;-72
2021/07/26 03:09:35;;;;;;;27.00;15.05;;;17.90;99.90;;;;;;2096450;28;20039;-73
2021/07/26 03:10:36;;;;;;;32.28;15.00;;;17.90;99.90;;;;;;2104790;28;20051;-72
2021/07/26 03:11:37;;;;;;;33.78;15.98;;;17.90;99.90;;;;;;2102736;28;20046;-73
2021/07/26 03:12:38;;;;;;;34.92;14.88;;;17.90;99.90;;;;;;2096279;28;20024;-72
2021/07/26 03:13:45;;;;;;;32.38;14.90;;;17.90;99.90;;;;;;2096620;28;20399;-73
2021/07/26 03:14:45;;;;;;;29.98;14.50;;;17.90;99.90;;;;;;2096935;28;20078;-73
2021/07/26 03:15:46;;;;;;;30.98;14.93;;;17.90;99.90;;;;;;2096209;28;20029;-73
2021/07/26 03:16:47;;;;;;;25.98;14.88;;;17.90;99.90;;;;;;2094996;28;20055;-73
2021/07/26 03:17:48;;;;;;;31.08;14.82;;;17.90;99.90;;;;;;2096976;28;20059;-73
2021/07/26 03:18:48;;;;;;;27.83;15.13;;;17.90;99.90;;;;;;2104816;28;20024;-73
2021/07/26 03:19:49;;;;;;;31.48;15.10;;;17.90;99.90;;;;;;2096853;28;20074;-72
2021/07/26 03:20:49;;;;;;;33.17;15.07;;;17.90;99.90;;;;;;2095417;28;20017;-73
2021/07/26 03:22:21;;;;;;;27.38;14.38;;;17.90;99.90;;;;;;2096758;28;20024;-73
2021/07/26 03:23:22;;;;;;;36.90;14.75;;;17.90;99.90;;;;;;2096983;28;20021;-72
2021/07/26 03:24:22;;;;;;;30.35;15.85;;;17.90;99.90;;;;;;2096083;28;20034;-74
2021/07/26 03:25:23;;;;;;;34.72;14.68;;;17.90;99.90;;;;;;2096130;28;20028;-74
2021/07/26 03:26:24;;;;;;;27.90;15.00;;;17.90;99.90;;;;;;2103245;28;20012;-72
2021/07/26 03:27:24;;;;;;;25.23;14.55;;;17.90;99.90;;;;;;2105213;28;20016;-72
2021/07/26 03:28:25;;;;;;;30.40;14.55;;;17.90;99.90;;;;;;2105212;28;20053;-73
2021/07/26 03:29:26;;;;;;;29.02;15.60;;;17.90;99.90;;;;;;2102708;28;20030;-73
2021/07/26 03:30:27;;;;;;;35.33;14.57;;;17.90;99.90;;;;;;2104575;28;20027;-73
2021/07/26 03:31:27;;;;;;;32.75;14.52;;;17.90;99.90;;;;;;2104154;28;20028;-72
2021/07/26 03:32:28;;;;;;;33.08;15.30;;;17.90;99.90;;;;;;2096162;28;20029;-72
2021/07/26 03:33:29;;;;;;;34.53;15.30;;;17.90;99.90;;;;;;2098702;28;20024;-73
2021/07/26 03:34:29;;;;;;;35.40;16.30;;;17.90;99.90;;;;;;2097805;28;20021;-72
2021/07/26 03:35:30;;;;;;;32.58;14.48;;;17.90;99.90;;;;;;2096770;28;20027;-73
2021/07/26 03:36:30;;;;;;;31.65;15.00;;;17.90;99.90;;;;;;2096707;28;20070;-73
2021/07/26 03:37:31;;;;;;;26.63;14.35;;;17.90;99.90;;;;;;2098667;28;20107;-73
2021/07/26 03:38:32;;;;;;;29.45;14.63;;;17.90;99.90;;;;;;2104250;28;20021;-72
2021/07/26 03:39:33;;;;;;;31.83;14.73;;;17.90;99.90;;;;;;2100556;28;20081;-73
2021/07/26 03:40:34;;;;;;;29.52;15.18;;;17.90;99.90;;;;;;2104580;28;20024;-73
2021/07/26 03:41:34;;;;;;;36.45;14.93;;;17.90;99.90;;;;;;2099285;28;20047;-73
2021/07/26 03:42:36;;;;;;;35.28;15.57;;;17.90;99.90;;;;;;2104200;28;20524;-73
2021/07/26 03:43:37;;;;;;;27.52;14.57;;;17.90;99.90;;;;;;2104348;28;20051;-72
2021/07/26 03:44:37;;;;;;;31.23;15.55;;;17.90;99.90;;;;;;2105087;28;20028;-72
2021/07/26 03:45:38;;;;;;;34.25;15.85;;;17.90;99.90;;;;;;2100746;28;20435;-71
2021/07/26 03:46:39;;;;;;;35.00;15.27;;;17.90;99.90;;;;;;2104247;28;20024;-74
2021/07/26 03:47:41;;;;;;;28.23;15.35;;;17.80;99.90;;;;;;2100214;28;20012;-73
2021/07/26 03:48:41;;;;;;;29.73;15.00;;;17.90;99.90;;;;;;2103298;28;20031;-73
2021/07/26 03:49:42;;;;;;;31.83;15.55;;;17.90;99.90;;;;;;2097755;28;20048;-73
2021/07/26 03:50:42;;;;;;;30.25;15.68;;;17.90;99.90;;;;;;2098368;28;20103;-72
2021/07/26 03:51:43;;;;;;;32.50;15.98;;;17.90;99.90;;;;;;2106926;28;20450;-74
2021/07/26 03:52:52;;;;;;;29.13;16.00;;;17.90;99.90;;;;;;2107358;28;20107;-76
2021/07/26 03:53:53;;;;;;;39.33;17.33;;;17.80;99.90;;;;;;2102189;28;20570;-73
2021/07/26 03:54:55;;;;;;;28.27;14.38;;;17.90;99.90;;;;;;2102783;28;20032;-74
2021/07/26 03:55:56;;;;;;;31.80;14.38;;;17.90;99.90;;;;;;2106394;28;20582;-73
2021/07/26 03:56:57;;;;;;;29.23;16.15;;;17.90;99.90;;;;;;2106533;28;20024;-73
2021/07/26 03:57:59;;;;;;;32.70;15.88;;;17.90;99.90;;;;;;2106715;28;20016;-73
2021/07/26 03:59:00;;;;;;;35.88;16.00;;;17.80;99.90;;;;;;2106535;28;20560;-73
2021/07/26 04:00:00;;;;;;;34.30;15.73;;;17.80;99.90;;;;;;2106513;28;20114;-73
2021/07/26 04:01:01;;;;;;;35.70;16.98;;;17.80;99.90;;;;;;2099143;28;20036;-73
2021/07/26 04:02:02;;;;;;;36.03;16.02;;;17.90;99.90;;;;;;2101730;28;20438;-73
2021/07/26 04:03:22;;;;;;;39.23;17.17;;;17.90;99.90;;;;;;2106235;28;20017;-73
2021/07/26 04:04:24;;;;;;;40.88;16.83;;;17.90;99.90;;;;;;2106435;28;20258;-72
2021/07/26 04:05:32;;;;;;;35.15;16.00;;;17.90;99.90;;;;;;2106576;28;20008;-75
2021/07/26 04:06:33;;;;;;;34.58;16.38;;;17.90;99.90;;;;;;2106732;28;20395;-72
2021/07/26 04:07:37;;;;;;;30.58;16.50;;;17.90;99.90;;;;;;2106847;28;20020;-72
2021/07/26 04:08:40;;;;;;;29.00;16.08;;;17.90;99.90;;;;;;2106454;28;20065;-74
2021/07/26 04:09:44;;;;;;;33.90;16.67;;;17.90;99.90;;;;;;2102896;28;20024;-73
2021/07/26 04:10:49;;;;;;;30.10;16.17;;;17.90;99.90;;;;;;2105261;28;20069;-74
2021/07/26 04:11:58;;;;;;;35.85;16.67;;;17.90;99.90;;;;;;2103338;28;20034;-73
2021/07/26 04:12:59;;;;;;;32.65;15.95;;;17.90;99.90;;;;;;2105864;28;20055;-73
2021/07/26 04:14:05;;;;;;;37.38;16.88;;;17.90;99.90;;;;;;2105856;28;20023;-72
2021/07/26 04:15:10;;;;;;;36.83;16.50;;;17.90;99.90;;;;;;2098327;28;20158;-72
2021/07/26 04:16:11;;;;;;;42.33;17.25;;;17.90;99.90;;;;;;2097124;28;20028;-72
2021/07/26 04:17:11;;;;;;;34.55;15.82;;;17.90;99.90;;;;;;2097616;28;20044;-72
2021/07/26 04:18:13;;;;;;;32.97;15.88;;;17.90;99.90;;;;;;2096636;28;20036;-72
2021/07/26 04:19:14;;;;;;;35.72;17.08;;;17.90;99.90;;;;;;2102297;28;20316;-72
2021/07/26 04:20:14;;;;;;;45.53;17.25;;;17.90;99.90;;;;;;2100950;28;20024;-73
2021/07/26 04:21:15;;;;;;;31.25;16.25;;;17.90;99.90;;;;;;2105607;28;20111;-72
2021/07/26 04:22:16;;;;;;;42.47;16.25;;;17.80;99.90;;;;;;2108836;28;20024;-74
2021/07/26 04:23:17;;;;;;;31.50;14.95;;;17.80;99.90;;;;;;2107519;28;20020;-74
2021/07/26 04:24:18;;;;;;;33.60;16.90;;;17.80;99.90;;;;;;2106620;28;20019;-72
2021/07/26 04:25:18;;;;;;;36.75;18.27;;;17.80;99.90;;;;;;2104048;28;20024;-73
2021/07/26 04:26:19;;;;;;;35.45;16.38;;;17.80;99.90;;;;;;2099621;28;20461;-73
2021/07/26 04:27:20;;;;;;;39.15;17.23;;;17.80;99.90;;;;;;2106445;28;20027;-72
2021/07/26 04:28:20;;;;;;;30.63;16.58;;;17.80;99.90;;;;;;2105550;28;20035;-74
2021/07/26 04:29:21;;;;;;;32.22;15.73;;;17.80;99.90;;;;;;2106030;28;20016;-73
2021/07/26 04:30:22;;;;;;;35.85;16.08;;;17.90;99.90;;;;;;2106504;28;20388;-72
2021/07/26 04:31:23;;;;;;;34.85;16.23;;;17.80;99.90;;;;;;2106394;28;20120;-72
2021/07/26 04:32:23;;;;;;;44.95;17.13;;;17.80;99.90;;;;;;2105845;28;20433;-73
2021/07/26 04:33:24;;;;;;;33.53;16.15;;;17.80;99.90;;;;;;2097222;28;20036;-72
2021/07/26 04:34:25;;;;;;;36.97;16.02;;;17.80;99.90;;;;;;2105734;28;20013;-73
2021/07/26 04:35:26;;;;;;;30.55;16.85;;;17.80;99.90;;;;;;2102348;28;20082;-73
2021/07/26 04:36:26;;;;;;;36.40;17.20;;;17.80;99.90;;;;;;2102462;28;20022;-72
2021/07/26 04:37:28;;;;;;;29.70;15.77;;;17.80;99.90;;;;;;2106160;28;20114;-73
2021/07/26 04:38:29;;;;;;;;;;;17.80;99.90;;;;;;2103779;28;20701;-73
2021/07/26 04:39:30;;;;;;;36.25;17.00;;;17.70;99.90;;;;;;2102231;28;19911;-73
2021/07/26 04:40:30;;;;;;;32.90;15.98;;;17.80;99.90;;;;;;2097181;28;20628;-73
2021/07/26 04:41:35;;;;;;;33.58;17.25;;;17.80;99.90;;;;;;2097248;28;20329;-73
2021/07/26 04:42:37;;;;;;;31.13;16.30;;;17.80;99.90;;;;;;2098221;28;20027;-73
2021/07/26 04:43:37;;;;;;;30.42;17.05;;;17.80;99.90;;;;;;2097761;28;20498;-73
2021/07/26 04:44:39;;;;;;;34.53;16.20;;;17.80;99.90;;;;;;2097717;28;20043;-73
2021/07/26 04:45:40;;;;;;;38.45;17.15;;;17.70;99.90;;;;;;2098247;28;20028;-73
2021/07/26 04:46:40;;;;;;;36.22;16.80;;;17.70;99.90;;;;;;2097769;28;20153;-73
2021/07/26 04:47:41;;;;;;;39.03;17.98;;;17.70;99.90;;;;;;2105096;28;20055;-73
2021/07/26 04:48:42;;;;;;;35.28;17.05;;;17.70;99.90;;;;;;2097032;28;20419;-73
2021/07/26 04:49:43;;;;;;;42.30;16.70;;;17.70;99.90;;;;;;2097176;28;20025;-73
2021/07/26 04:50:43;;;;;;;38.70;17.33;;;17.70;99.90;;;;;;2097328;28;20023;-74
2021/07/26 04:51:44;;;;;;;31.88;16.38;;;17.70;99.90;;;;;;2089038;28;20519;-73
2021/07/26 04:52:45;;;;;;;44.70;17.88;;;17.70;99.90;;;;;;2097352;28;20025;-74
2021/07/26 04:53:45;;;;;;;39.97;16.55;;;17.70;99.90;;;;;;2097118;28;20052;-74
2021/07/26 04:54:46;;;;;;;35.05;16.27;;;17.70;99.90;;;;;;2087881;28;20025;-73
2021/07/26 04:55:47;;;;;;;35.03;16.60;;;17.70;99.90;;;;;;2105075;28;20032;-74
2021/07/26 04:56:47;;;;;;;34.38;17.15;;;17.70;99.90;;;;;;2105335;28;20035;-74
2021/07/26 04:57:48;;;;;;;35.83;16.38;;;17.70;99.90;;;;;;2105556;28;20039;-73
2021/07/26 04:58:48;;;;;;;43.72;17.85;;;17.70;99.90;;;;;;2105725;28;20016;-73
2021/07/26 04:59:49;;;;;;;42.20;17.23;;;17.70;99.90;;;;;;2097818;28;20035;-74
2021/07/26 05:00:50;;;;;;;37.83;16.73;;;17.70;99.90;;;;;;2097054;28;20048;-74
2021/07/26 05:01:50;;;;;;;34.53;16.50;;;17.70;99.90;;;;;;2096790;28;20057;-73
2021/07/26 05:02:51;;;;;;;31.95;16.75;;;17.70;99.90;;;;;;2097918;28;20020;-74
2021/07/26 05:03:52;;;;;;;34.65;16.48;;;17.70;99.90;;;;;;2097967;28;20077;-74
2021/07/26 05:04:52;;;;;;;34.10;16.58;;;17.70;99.90;;;;;;2097668;28;20027;-73
2021/07/26 05:05:53;;;;;;;31.92;16.40;;;17.60;99.90;;;;;;2103096;28;20024;-73
2021/07/26 05:07:01;;;;;;;35.78;16.65;;;17.60;99.90;;;;;;2106244;28;20446;-74
2021/07/26 05:08:02;;;;;;;32.90;16.20;;;17.60;99.90;;;;;;2106556;28;20024;-74
2021/07/26 05:09:03;;;;;;;37.67;17.48;;;17.60;99.90;;;;;;2106806;28;20392;-73
2021/07/26 05:10:04;;;;;;;35.67;16.58;;;17.60;99.90;;;;;;2100722;28;20524;-73
2021/07/26 05:11:05;;;;;;;36.83;16.15;;;17.60;99.90;;;;;;2103951;28;20050;-74
2021/07/26 05:12:07;;;;;;;36.10;15.98;;;17.70;99.90;;;;;;2104443;28;20036;-74
2021/07/26 05:13:08;;;;;;;37.35;16.48;;;17.70;99.90;;;;;;2101431;28;20016;-73